Matsumaru No.12 — JI3645 — position and weather

sailwx.info

Track history (hours):
 
Tides and Currents Weather Stations Pressure Air Temp Water Temp Dewpoint Dewpoint Depression Visibility Wind Speed Wind Dir Waves Ship Positions

Matsumaru No.12

Last reported at 2018-Jan-22 14:00 UTC. Time now 2018-Jan-22 14:06 UTC.
Position N 34°57' E 136°39'.

Length 85 m; draft 4.8 m.

Type: Tanker. MMSI: 431300697.

Date/timePositionNaut miles runAvg speedWind from/ knotsBaromVisibWave heightAir tempDewpointWater temp
2018-Jan-22 14:00N 34°57' E 136°39'0 0.0
2018-Jan-22 13:30N 34°57' E 136°39'0 0.0
2018-Jan-22 12:57N 34°57' E 136°39'0 0.0
2018-Jan-22 12:30N 34°57' E 136°39'0 0.0
2018-Jan-22 12:00N 34°57' E 136°39'0 0.0
2018-Jan-22 11:27N 34°57' E 136°39'0 0.0
2018-Jan-22 11:00N 34°57' E 136°39'0 0.0
2018-Jan-22 10:30N 34°57' E 136°39'0 0.0
2018-Jan-22 10:00N 34°57' E 136°39'0 0.0
2018-Jan-22 09:30N 34°57' E 136°39'0 0.0
2018-Jan-22 09:00N 34°57' E 136°39'0 0.0
2018-Jan-22 08:27N 34°57' E 136°39'0 0.0
2018-Jan-22 08:00N 34°57' E 136°39'0 0.0
2018-Jan-22 07:30N 34°57' E 136°39'0 0.0
2018-Jan-22 07:00N 34°57' E 136°39'0 0.0
2018-Jan-22 06:30N 34°57' E 136°39'0 0.0
2018-Jan-22 06:00N 34°57' E 136°39'0 0.0
2018-Jan-22 05:30N 34°57' E 136°39'0 0.0
2018-Jan-22 05:00N 34°57' E 136°39'0 0.0
2018-Jan-22 04:30N 34°57' E 136°39'0 0.0
2018-Jan-22 04:00N 34°57' E 136°39'0 0.1
2018-Jan-22 03:29N 34°57' E 136°39'4 8.9
2018-Jan-22 03:00N 34°54' E 136°42'713.3
2018-Jan-22 02:30N 34°48' E 136°46'713.1
2018-Jan-22 02:00N 34°43' E 136°50'813.4
2018-Jan-22 01:26N 34°37' E 136°56'1212.8
2018-Jan-22 00:31N 34°33' E 137°09'014.8
2018-Jan-22 00:30N 34°33' E 137°10'713.7
2018-Jan-22 00:00N 34°33' E 137°18'5514.1
2018-Jan-21 20:07N 34°33' E 138°24'213.8
2018-Jan-21 20:00N 34°33' E 138°26'814.2
2018-Jan-21 19:26N 34°33' E 138°36'614.3
2018-Jan-21 18:59N 34°33' E 138°44'713.7
2018-Jan-21 18:27N 34°33' E 138°53'612.1
2018-Jan-21 17:59N 34°34' E 138°60'612.2
2018-Jan-21 17:30N 34°38' E 139°05'1011.7
2018-Jan-21 16:41N 34°43' E 139°15'212.3
2018-Jan-21 16:30N 34°45' E 139°17'711.9
2018-Jan-21 15:56N 34°50' E 139°22'812.4
2018-Jan-21 15:18N 34°50' E 139°32'412.1
2018-Jan-21 14:59N 34°50' E 139°36'40612.7
2018-Jan-20 07:01N 41°26' E 141°31'413.6
2018-Jan-20 06:44N 41°29' E 141°27'414.4
2018-Jan-20 06:29N 41°30' E 141°23'714.7
2018-Jan-20 06:00N 41°33' E 141°14'714.4
2018-Jan-20 05:30N 41°36' E 141°05'815.2
2018-Jan-20 05:00N 41°39' E 140°56'714.4
2018-Jan-20 04:30N 41°42' E 140°47'612.3
2018-Jan-20 04:00N 41°46' E 140°41'3 6.2
2018-Jan-20 03:30N 41°49' E 140°42'0 0.0
2018-Jan-20 01:04N 41°49' E 140°42'0 0.0
2018-Jan-20 00:52N 41°49' E 140°42'0 0.0
2018-Jan-20 00:22N 41°49' E 140°42'0 0.0
2018-Jan-19 23:58N 41°49' E 140°42'0 0.0
2018-Jan-19 23:16N 41°49' E 140°42'0 0.0
2018-Jan-19 22:58N 41°49' E 140°42'0 0.0
2018-Jan-19 22:28N 41°49' E 140°42'0 0.3
2018-Jan-19 22:00N 41°48' E 140°42'2 3.4
2018-Jan-19 21:30N 41°47' E 140°43'0 0.1
2018-Jan-19 20:59N 41°47' E 140°43'0 0.0
2018-Jan-19 20:23N 41°47' E 140°43'0 0.0
2018-Jan-19 19:47N 41°47' E 140°43'0 0.0
2018-Jan-19 19:29N 41°47' E 140°43'0 0.0
2018-Jan-19 18:59N 41°47' E 140°43'0 0.0
2018-Jan-19 18:29N 41°47' E 140°43'0 0.0
2018-Jan-19 17:59N 41°47' E 140°43'0 0.0
2018-Jan-19 17:29N 41°47' E 140°43'0 0.0
2018-Jan-19 16:59N 41°47' E 140°43'0 0.0
2018-Jan-19 16:20N 41°47' E 140°43'0 0.0
2018-Jan-19 15:59N 41°47' E 140°43'0 0.0
2018-Jan-19 15:23N 41°47' E 140°43'0 0.0
2018-Jan-19 14:59N 41°47' E 140°43'0 0.0
2018-Jan-19 14:29N 41°47' E 140°43'0 0.0
2018-Jan-19 13:59N 41°47' E 140°43'0 0.0
2018-Jan-19 13:29N 41°47' E 140°43'0 0.0
2018-Jan-19 12:56N 41°47' E 140°43'0 0.0
2018-Jan-19 12:29N 41°47' E 140°43'0 0.0
2018-Jan-19 11:59N 41°47' E 140°43'0 0.0
2018-Jan-19 11:20N 41°47' E 140°43'0 0.0
2018-Jan-19 10:59N 41°47' E 140°43'0 0.0
2018-Jan-19 10:26N 41°47' E 140°43'0 0.0
2018-Jan-19 09:59N 41°47' E 140°43'0 0.0
2018-Jan-19 09:29N 41°47' E 140°43'0 0.0
2018-Jan-19 08:59N 41°47' E 140°43'0 0.0
2018-Jan-19 08:29N 41°47' E 140°43'0 0.0
2018-Jan-19 07:59N 41°47' E 140°43'0 0.0
2018-Jan-19 07:29N 41°47' E 140°43'0 0.0
2018-Jan-19 06:59N 41°47' E 140°43'0 0.0
2018-Jan-19 06:29N 41°47' E 140°43'0 0.0
2018-Jan-19 05:59N 41°47' E 140°43'0 0.0
2018-Jan-19 05:29N 41°47' E 140°43'0 0.0
2018-Jan-19 04:59N 41°47' E 140°43'0 0.0
2018-Jan-19 04:29N 41°47' E 140°43'2 3.7
2018-Jan-19 04:00N 41°48' E 140°41'1 1.0
2018-Jan-19 03:29N 41°47' E 140°41'0 0.1
2018-Jan-19 02:59N 41°47' E 140°41'0 0.0
2018-Jan-19 02:29N 41°47' E 140°41'0 0.0
2018-Jan-19 01:59N 41°47' E 140°41'0 0.1
2018-Jan-19 01:26N 41°47' E 140°41'3 6.2
2018-Jan-19 01:00N 41°45' E 140°41'611.7
2018-Jan-19 00:30N 41°41' E 140°47'611.2
2018-Jan-19 00:00N 41°38' E 140°53'510.4
2018-Jan-18 23:30N 41°35' E 140°59'510.0
2018-Jan-18 23:00N 41°33' E 141°05'5 9.7
2018-Jan-18 22:30N 41°31' E 141°11'510.4
2018-Jan-18 22:00N 41°30' E 141°18'610.3
2018-Jan-18 21:28N 41°28' E 141°25'12 9.0
2018-Jan-18 20:10N 41°17' E 141°31'311.6
2018-Jan-18 19:55N 41°14' E 141°31'  
2018-Jan-12 14:56N 34°57' E 136°38'0 0.0
2018-Jan-12 14:26N 34°57' E 136°38'  
Track history (hours):
 
Tides and Currents Weather Stations Pressure Air Temp Water Temp Dewpoint Dewpoint Depression Visibility Wind Speed Wind Dir Waves Ship Positions

Matsumaru No.12

Last reported at 2018-Jan-22 14:00 UTC. Time now 2018-Jan-22 14:06 UTC.
Position N 34°57' E 136°39'.

Length 85 m; draft 4.8 m.

Type: Tanker. MMSI: 431300697.

Date/timePositionNaut miles runAvg speedWind from/ knotsBaromVisibWave heightAir tempDewpointWater temp
2018-Jan-22 14:00N 34°57' E 136°39'0 0.0
2018-Jan-22 13:30N 34°57' E 136°39'0 0.0
2018-Jan-22 12:57N 34°57' E 136°39'0 0.0
2018-Jan-22 12:30N 34°57' E 136°39'0 0.0
2018-Jan-22 12:00N 34°57' E 136°39'0 0.0
2018-Jan-22 11:27N 34°57' E 136°39'0 0.0
2018-Jan-22 11:00N 34°57' E 136°39'0 0.0
2018-Jan-22 10:30N 34°57' E 136°39'0 0.0
2018-Jan-22 10:00N 34°57' E 136°39'0 0.0
2018-Jan-22 09:30N 34°57' E 136°39'0 0.0
2018-Jan-22 09:00N 34°57' E 136°39'0 0.0
2018-Jan-22 08:27N 34°57' E 136°39'0 0.0
2018-Jan-22 08:00N 34°57' E 136°39'0 0.0
2018-Jan-22 07:30N 34°57' E 136°39'0 0.0
2018-Jan-22 07:00N 34°57' E 136°39'0 0.0
2018-Jan-22 06:30N 34°57' E 136°39'0 0.0
2018-Jan-22 06:00N 34°57' E 136°39'0 0.0
2018-Jan-22 05:30N 34°57' E 136°39'0 0.0
2018-Jan-22 05:00N 34°57' E 136°39'0 0.0
2018-Jan-22 04:30N 34°57' E 136°39'0 0.0
2018-Jan-22 04:00N 34°57' E 136°39'0 0.1
2018-Jan-22 03:29N 34°57' E 136°39'4 8.9
2018-Jan-22 03:00N 34°54' E 136°42'713.3
2018-Jan-22 02:30N 34°48' E 136°46'713.1
2018-Jan-22 02:00N 34°43' E 136°50'813.4
2018-Jan-22 01:26N 34°37' E 136°56'1212.8
2018-Jan-22 00:31N 34°33' E 137°09'014.8
2018-Jan-22 00:30N 34°33' E 137°10'713.7
2018-Jan-22 00:00N 34°33' E 137°18'5514.1
2018-Jan-21 20:07N 34°33' E 138°24'213.8
2018-Jan-21 20:00N 34°33' E 138°26'814.2
2018-Jan-21 19:26N 34°33' E 138°36'614.3
2018-Jan-21 18:59N 34°33' E 138°44'713.7
2018-Jan-21 18:27N 34°33' E 138°53'612.1
2018-Jan-21 17:59N 34°34' E 138°60'612.2
2018-Jan-21 17:30N 34°38' E 139°05'1011.7
2018-Jan-21 16:41N 34°43' E 139°15'212.3
2018-Jan-21 16:30N 34°45' E 139°17'711.9
2018-Jan-21 15:56N 34°50' E 139°22'812.4
2018-Jan-21 15:18N 34°50' E 139°32'412.1
2018-Jan-21 14:59N 34°50' E 139°36'40612.7
2018-Jan-20 07:01N 41°26' E 141°31'413.6
2018-Jan-20 06:44N 41°29' E 141°27'414.4
2018-Jan-20 06:29N 41°30' E 141°23'714.7
2018-Jan-20 06:00N 41°33' E 141°14'714.4
2018-Jan-20 05:30N 41°36' E 141°05'815.2
2018-Jan-20 05:00N 41°39' E 140°56'714.4
2018-Jan-20 04:30N 41°42' E 140°47'612.3
2018-Jan-20 04:00N 41°46' E 140°41'3 6.2
2018-Jan-20 03:30N 41°49' E 140°42'0 0.0
2018-Jan-20 01:04N 41°49' E 140°42'0 0.0
2018-Jan-20 00:52N 41°49' E 140°42'0 0.0
2018-Jan-20 00:22N 41°49' E 140°42'0 0.0
2018-Jan-19 23:58N 41°49' E 140°42'0 0.0
2018-Jan-19 23:16N 41°49' E 140°42'0 0.0
2018-Jan-19 22:58N 41°49' E 140°42'0 0.0
2018-Jan-19 22:28N 41°49' E 140°42'0 0.3
2018-Jan-19 22:00N 41°48' E 140°42'2 3.4
2018-Jan-19 21:30N 41°47' E 140°43'0 0.1
2018-Jan-19 20:59N 41°47' E 140°43'0 0.0
2018-Jan-19 20:23N 41°47' E 140°43'0 0.0
2018-Jan-19 19:47N 41°47' E 140°43'0 0.0
2018-Jan-19 19:29N 41°47' E 140°43'0 0.0
2018-Jan-19 18:59N 41°47' E 140°43'0 0.0
2018-Jan-19 18:29N 41°47' E 140°43'0 0.0
2018-Jan-19 17:59N 41°47' E 140°43'0 0.0
2018-Jan-19 17:29N 41°47' E 140°43'0 0.0
2018-Jan-19 16:59N 41°47' E 140°43'0 0.0
2018-Jan-19 16:20N 41°47' E 140°43'0 0.0
2018-Jan-19 15:59N 41°47' E 140°43'0 0.0
2018-Jan-19 15:23N 41°47' E 140°43'0 0.0
2018-Jan-19 14:59N 41°47' E 140°43'0 0.0
2018-Jan-19 14:29N 41°47' E 140°43'0 0.0
2018-Jan-19 13:59N 41°47' E 140°43'0 0.0
2018-Jan-19 13:29N 41°47' E 140°43'0 0.0
2018-Jan-19 12:56N 41°47' E 140°43'0 0.0
2018-Jan-19 12:29N 41°47' E 140°43'0 0.0
2018-Jan-19 11:59N 41°47' E 140°43'0 0.0
2018-Jan-19 11:20N 41°47' E 140°43'0 0.0
2018-Jan-19 10:59N 41°47' E 140°43'0 0.0
2018-Jan-19 10:26N 41°47' E 140°43'0 0.0
2018-Jan-19 09:59N 41°47' E 140°43'0 0.0
2018-Jan-19 09:29N 41°47' E 140°43'0 0.0
2018-Jan-19 08:59N 41°47' E 140°43'0 0.0
2018-Jan-19 08:29N 41°47' E 140°43'0 0.0
2018-Jan-19 07:59N 41°47' E 140°43'0 0.0
2018-Jan-19 07:29N 41°47' E 140°43'0 0.0
2018-Jan-19 06:59N 41°47' E 140°43'0 0.0
2018-Jan-19 06:29N 41°47' E 140°43'0 0.0
2018-Jan-19 05:59N 41°47' E 140°43'0 0.0
2018-Jan-19 05:29N 41°47' E 140°43'0 0.0
2018-Jan-19 04:59N 41°47' E 140°43'0 0.0
2018-Jan-19 04:29N 41°47' E 140°43'2 3.7
2018-Jan-19 04:00N 41°48' E 140°41'1 1.0
2018-Jan-19 03:29N 41°47' E 140°41'0 0.1
2018-Jan-19 02:59N 41°47' E 140°41'0 0.0
2018-Jan-19 02:29N 41°47' E 140°41'0 0.0
2018-Jan-19 01:59N 41°47' E 140°41'0 0.1
2018-Jan-19 01:26N 41°47' E 140°41'3 6.2
2018-Jan-19 01:00N 41°45' E 140°41'611.7
2018-Jan-19 00:30N 41°41' E 140°47'611.2
2018-Jan-19 00:00N 41°38' E 140°53'510.4
2018-Jan-18 23:30N 41°35' E 140°59'510.0
2018-Jan-18 23:00N 41°33' E 141°05'5 9.7
2018-Jan-18 22:30N 41°31' E 141°11'510.4
2018-Jan-18 22:00N 41°30' E 141°18'610.3
2018-Jan-18 21:28N 41°28' E 141°25'12 9.0
2018-Jan-18 20:10N 41°17' E 141°31'311.6
2018-Jan-18 19:55N 41°14' E 141°31'  
2018-Jan-12 14:56N 34°57' E 136°38'0 0.0
2018-Jan-12 14:26N 34°57' E 136°38'  

Dump ship's entire track history